createdAt,value
2023-02-15T00:01:49.355Z,13.10
2023-02-15T00:04:18.538Z,14.00
2023-02-15T00:09:12.606Z,13.00
2023-02-15T00:11:51.152Z,12.95
2023-02-15T00:14:24.959Z,13.93
2023-02-15T00:16:53.230Z,14.30
2023-02-15T00:19:21.520Z,14.38
2023-02-15T00:21:49.670Z,13.57
2023-02-15T00:24:18.021Z,14.00
2023-02-15T00:26:45.305Z,13.25
2023-02-15T00:29:12.698Z,14.75
2023-02-15T00:31:39.549Z,15.32
2023-02-15T00:34:21.229Z,12.10
2023-02-15T00:36:48.100Z,13.75
2023-02-15T00:39:15.698Z,12.20
2023-02-15T00:41:42.670Z,12.75
2023-02-15T00:44:10.299Z,12.23
2023-02-15T00:46:37.243Z,12.10
2023-02-15T00:49:04.731Z,12.93
2023-02-15T00:51:32.228Z,13.55
2023-02-15T00:53:59.213Z,14.60
2023-02-15T00:56:26.076Z,13.30
2023-02-15T00:58:52.933Z,13.23
2023-02-15T01:01:21.091Z,14.85
2023-02-15T01:03:48.430Z,14.02
2023-02-15T01:06:16.495Z,12.25
2023-02-15T01:08:44.871Z,12.05
2023-02-15T01:11:15.230Z,14.93
2023-02-15T01:13:42.615Z,12.18
2023-02-15T01:16:09.738Z,13.43
2023-02-15T01:18:36.840Z,13.25
2023-02-15T01:21:30.305Z,13.57
2023-02-15T01:23:57.181Z,12.95
2023-02-15T01:26:23.969Z,14.00
2023-02-15T01:28:50.871Z,12.82
2023-02-15T01:31:20.248Z,13.63
2023-02-15T01:33:48.235Z,13.27
2023-02-15T01:36:15.700Z,13.48
2023-02-15T01:38:42.925Z,14.10
2023-02-15T01:41:25.543Z,13.95
2023-02-15T01:43:58.820Z,13.18
2023-02-15T01:46:34.766Z,12.13
2023-02-15T01:49:06.545Z,12.23
2023-02-15T01:51:35.695Z,12.40
2023-02-15T01:56:40.999Z,10.27
2023-02-15T01:59:11.673Z,12.13
2023-02-15T02:01:39.219Z,12.25
2023-02-15T02:04:06.155Z,11.60
2023-02-15T02:06:34.562Z,12.38
2023-02-15T02:09:01.969Z,11.73
2023-02-15T02:11:29.213Z,12.57
2023-02-15T02:13:57.232Z,12.05
2023-02-15T02:16:58.168Z,13.70
2023-02-15T02:19:46.982Z,10.77
2023-02-15T02:22:26.519Z,12.10
2023-02-15T02:25:07.985Z,12.50
2023-02-15T02:27:35.687Z,10.77
2023-02-15T02:30:20.765Z,11.48
2023-02-15T02:33:11.661Z,10.75
2023-02-15T02:36:08.870Z,12.38
2023-02-15T02:38:47.882Z,11.07
2023-02-15T02:41:23.799Z,11.40
2023-02-15T02:43:57.678Z,11.20
2023-02-15T02:46:32.348Z,11.38
2023-02-15T02:48:59.307Z,10.60
2023-02-15T02:51:26.027Z,11.25
2023-02-15T02:53:55.128Z,10.95
2023-02-15T02:56:30.595Z,10.38
2023-02-15T02:59:11.205Z,12.48
2023-02-15T03:01:43.811Z,12.60
2023-02-15T03:04:14.404Z,12.90
2023-02-15T03:06:48.115Z,11.63
2023-02-15T03:09:22.645Z,10.60
2023-02-15T03:11:50.541Z,11.57
2023-02-15T03:14:19.008Z,12.43
2023-02-15T03:16:48.494Z,10.77
2023-02-15T03:19:19.903Z,10.95
2023-02-15T03:22:04.871Z,10.93
2023-02-15T03:24:43.005Z,10.20
2023-02-15T03:27:18.208Z,10.18
2023-02-15T03:29:53.239Z,11.70
2023-02-15T03:32:20.553Z,11.02
2023-02-15T03:34:47.536Z,10.50
2023-02-15T03:37:51.271Z,10.63
2023-02-15T03:40:44.155Z,10.45
2023-02-15T03:43:23.339Z,9.98
2023-02-15T03:45:56.460Z,11.10
2023-02-15T03:48:33.178Z,9.82
2023-02-15T03:51:23.170Z,11.18
2023-02-15T03:53:50.601Z,10.57
2023-02-15T03:56:17.550Z,9.90
2023-02-15T03:59:02.929Z,11.60
2023-02-15T04:01:59.631Z,12.02
2023-02-15T04:04:36.000Z,10.80
2023-02-15T04:07:05.199Z,10.65
2023-02-15T04:12:17.502Z,10.20
2023-02-15T04:15:02.836Z,9.93
2023-02-15T04:17:30.037Z,10.88
2023-02-15T04:20:15.674Z,11.60
2023-02-15T04:23:00.852Z,11.30
2023-02-15T04:25:27.817Z,10.38
2023-02-15T04:27:55.301Z,11.18
2023-02-15T04:30:24.350Z,12.70
2023-02-15T04:32:52.136Z,12.07
2023-02-15T04:35:19.401Z,10.57
2023-02-15T04:37:46.225Z,10.98
2023-02-15T04:40:16.000Z,12.20
2023-02-15T04:42:43.701Z,10.68
2023-02-15T04:45:10.469Z,10.63
2023-02-15T04:47:37.326Z,10.70
2023-02-15T04:50:04.552Z,10.65
2023-02-15T04:52:31.397Z,10.88
2023-02-15T04:54:58.181Z,12.20
2023-02-15T04:57:25.083Z,10.00
2023-02-15T04:59:51.896Z,10.60
2023-02-15T05:02:20.797Z,10.38
2023-02-15T05:04:47.689Z,12.02
2023-02-15T05:07:15.799Z,11.93
2023-02-15T05:09:42.755Z,10.52
2023-02-15T05:12:09.581Z,10.88
2023-02-15T05:14:36.334Z,10.48
2023-02-15T05:17:04.362Z,10.77
2023-02-15T05:19:31.226Z,10.63
2023-02-15T05:21:58.060Z,11.30
2023-02-15T05:24:43.446Z,11.20
2023-02-15T05:27:31.896Z,11.45
2023-02-15T05:32:25.814Z,9.95
2023-02-15T05:34:52.763Z,9.45
2023-02-15T05:37:19.579Z,10.80
2023-02-15T05:39:46.374Z,9.95
2023-02-15T05:42:13.239Z,11.23
2023-02-15T05:44:39.998Z,10.35
2023-02-15T05:47:08.544Z,12.18
2023-02-15T05:49:35.456Z,11.02
2023-02-15T05:52:02.566Z,9.50
2023-02-15T05:54:29.652Z,10.52
2023-02-15T05:56:56.577Z,10.90
2023-02-15T05:59:23.601Z,11.50
2023-02-15T06:01:50.384Z,11.48
2023-02-15T06:04:17.238Z,10.27
2023-02-15T06:06:44.196Z,10.88
2023-02-15T06:09:13.006Z,10.30
2023-02-15T06:11:39.821Z,11.25
2023-02-15T06:14:06.760Z,10.15
2023-02-15T06:16:33.685Z,11.13
2023-02-15T06:19:02.324Z,9.82
2023-02-15T06:21:29.857Z,8.40
2023-02-15T06:23:56.583Z,10.20
2023-02-15T06:26:23.491Z,10.10
2023-02-15T06:28:50.491Z,9.15
2023-02-15T06:31:17.405Z,10.35
2023-02-15T06:33:44.357Z,10.13
2023-02-15T06:36:11.330Z,9.82
2023-02-15T06:38:38.084Z,9.90
2023-02-15T06:41:04.862Z,9.35
2023-02-15T06:43:31.843Z,8.95
2023-02-15T06:45:59.326Z,9.80
2023-02-15T06:48:26.271Z,9.70
2023-02-15T06:50:53.319Z,9.73
2023-02-15T06:53:20.150Z,10.75
2023-02-15T06:55:47.018Z,9.20
2023-02-15T06:58:13.902Z,8.32
2023-02-15T07:00:40.691Z,8.85
2023-02-15T07:03:07.590Z,9.18
2023-02-15T07:05:35.353Z,8.45
2023-02-15T07:08:02.735Z,8.15
2023-02-15T07:10:29.658Z,8.35
2023-02-15T07:12:56.786Z,8.40
2023-02-15T07:15:23.849Z,7.78
2023-02-15T07:17:50.738Z,7.63
2023-02-15T07:20:23.152Z,7.70
2023-02-15T07:22:50.545Z,8.20
2023-02-15T07:25:17.439Z,8.43
2023-02-15T07:27:45.745Z,7.85
2023-02-15T07:30:15.147Z,7.70
2023-02-15T07:33:04.853Z,8.40
2023-02-15T07:35:32.633Z,7.75
2023-02-15T07:37:59.398Z,7.65
2023-02-15T07:40:26.226Z,8.55
2023-02-15T07:42:54.338Z,7.53
2023-02-15T07:45:21.993Z,6.80
2023-02-15T07:47:48.834Z,7.68
2023-02-15T07:50:15.970Z,8.20
2023-02-15T07:52:42.668Z,8.68
2023-02-15T07:55:09.948Z,6.70
2023-02-15T07:57:36.890Z,7.63
2023-02-15T08:00:04.815Z,7.82
2023-02-15T08:02:39.428Z,9.45
2023-02-15T08:05:07.023Z,7.47
2023-02-15T08:07:33.859Z,8.48
2023-02-15T08:10:00.785Z,7.63
2023-02-15T08:12:28.061Z,8.75
2023-02-15T08:14:54.844Z,8.05
2023-02-15T08:17:21.610Z,8.23
2023-02-15T08:19:48.758Z,8.85
2023-02-15T08:22:15.627Z,7.68
2023-02-15T08:24:42.613Z,7.80
2023-02-15T08:27:11.252Z,8.65
2023-02-15T08:29:38.838Z,8.32
2023-02-15T08:32:10.980Z,7.75
2023-02-15T08:34:40.353Z,7.72
2023-02-15T08:37:07.407Z,7.22
2023-02-15T08:39:34.579Z,7.10
2023-02-15T08:42:01.564Z,8.40
2023-02-15T08:44:28.480Z,8.02
2023-02-15T08:46:55.786Z,7.72
2023-02-15T08:49:23.332Z,8.13
2023-02-15T08:51:50.764Z,7.90
2023-02-15T08:54:20.436Z,6.68
2023-02-15T08:56:47.762Z,7.28
2023-02-15T08:59:20.352Z,7.60
2023-02-15T09:01:48.609Z,8.45
2023-02-15T09:04:16.857Z,8.55
2023-02-15T09:06:47.633Z,7.47
2023-02-15T09:09:16.092Z,9.43
2023-02-15T09:11:44.911Z,8.10
2023-02-15T09:14:14.662Z,7.55
2023-02-15T09:16:43.351Z,8.13
2023-02-15T09:21:38.993Z,9.85
2023-02-15T09:24:08.041Z,9.68
2023-02-15T09:26:37.735Z,9.27
2023-02-15T09:29:05.006Z,8.70
2023-02-15T09:31:38.895Z,8.48
2023-02-15T09:34:05.748Z,10.52
2023-02-15T09:36:38.007Z,9.18
2023-02-15T09:39:08.804Z,10.85
2023-02-15T09:41:47.889Z,11.90
2023-02-15T09:44:19.197Z,9.63
2023-02-15T09:47:26.144Z,9.68
2023-02-15T09:50:01.961Z,10.23
2023-02-15T09:52:49.787Z,9.23
2023-02-15T10:00:26.867Z,8.20
2023-02-15T10:03:06.174Z,8.50
2023-02-15T10:05:41.454Z,9.07
2023-02-15T10:08:27.880Z,8.63
2023-02-15T10:11:36.038Z,9.20
2023-02-15T10:14:18.918Z,7.88
2023-02-15T10:17:08.058Z,8.63
2023-02-15T10:19:59.056Z,8.63
2023-02-15T10:23:03.561Z,8.80
2023-02-15T10:25:33.180Z,9.43
2023-02-15T10:28:08.476Z,8.75
2023-02-15T10:30:47.397Z,10.07
2023-02-15T10:33:40.381Z,9.27
2023-02-15T10:36:32.095Z,10.30
2023-02-15T10:39:01.595Z,9.55
2023-02-15T10:42:12.529Z,9.77
2023-02-15T10:45:12.050Z,8.95
2023-02-15T10:47:41.966Z,8.30
2023-02-15T10:50:28.468Z,10.70
2023-02-15T10:53:10.686Z,9.05
2023-02-15T10:55:46.548Z,10.52
2023-02-15T10:58:25.961Z,11.57
2023-02-15T11:01:09.071Z,9.85
2023-02-15T11:03:38.067Z,11.25
2023-02-15T11:06:14.375Z,11.02
2023-02-15T11:08:46.555Z,11.10
2023-02-15T11:11:17.633Z,10.13
2023-02-15T11:13:48.121Z,10.70
2023-02-15T11:16:22.365Z,11.07
2023-02-15T11:18:51.989Z,12.38
2023-02-15T11:21:28.141Z,10.70
2023-02-15T11:23:55.155Z,10.88
2023-02-15T11:26:33.005Z,12.02
2023-02-15T11:29:13.377Z,10.85
2023-02-15T11:31:56.115Z,11.40
2023-02-15T11:34:28.556Z,10.13
2023-02-15T11:36:57.022Z,11.35
2023-02-15T11:39:25.680Z,12.63
2023-02-15T11:41:55.141Z,10.40
2023-02-15T11:44:27.134Z,10.98
2023-02-15T11:46:53.957Z,11.90
2023-02-15T11:49:26.738Z,11.20
2023-02-15T11:51:54.338Z,10.70
2023-02-15T11:54:34.136Z,11.48
2023-02-15T11:57:16.236Z,11.02
2023-02-15T11:59:48.520Z,10.50
2023-02-15T12:02:21.348Z,11.02
2023-02-15T12:05:00.956Z,11.55
2023-02-15T12:07:33.637Z,11.30
2023-02-15T12:10:12.978Z,11.93
2023-02-15T12:12:39.911Z,10.73
2023-02-15T12:15:08.837Z,12.25
2023-02-15T12:17:39.566Z,10.35
2023-02-15T12:20:15.584Z,10.15
2023-02-15T12:22:54.502Z,11.00
2023-02-15T12:25:33.788Z,11.95
2023-02-15T12:28:00.597Z,11.82
2023-02-15T12:30:36.959Z,11.50
2023-02-15T12:33:20.302Z,11.27
2023-02-15T12:35:50.379Z,11.68
2023-02-15T12:38:17.269Z,11.20
2023-02-15T12:40:58.551Z,12.27
2023-02-15T12:43:35.415Z,10.93
2023-02-15T12:46:20.319Z,11.60
2023-02-15T12:48:47.213Z,11.25
2023-02-15T12:51:16.990Z,11.90
2023-02-15T12:53:45.218Z,11.35
2023-02-15T12:58:41.070Z,11.70
2023-02-15T13:01:20.550Z,11.80
2023-02-15T13:03:59.493Z,10.57
2023-02-15T13:06:27.794Z,13.02
2023-02-15T13:14:34.546Z,11.35
2023-02-15T13:17:04.022Z,11.07
2023-02-15T13:19:46.125Z,13.45
2023-02-15T13:22:24.884Z,12.40
2023-02-15T13:24:55.081Z,12.82
2023-02-15T13:27:45.162Z,12.50
2023-02-15T13:30:21.059Z,12.13
2023-02-15T13:32:50.297Z,11.57
2023-02-15T13:35:18.396Z,12.80
2023-02-15T13:38:00.422Z,11.65
2023-02-15T13:40:57.352Z,12.50
2023-02-15T13:43:37.836Z,10.52
2023-02-15T13:46:05.113Z,12.05
2023-02-15T13:48:57.715Z,11.07
2023-02-15T13:51:36.677Z,12.07
2023-02-15T13:54:10.824Z,12.10
2023-02-15T13:57:20.884Z,11.48
2023-02-15T13:59:59.969Z,11.57
2023-02-15T14:02:45.601Z,12.73
2023-02-15T14:05:31.902Z,10.65
2023-02-15T14:08:08.613Z,11.45
2023-02-15T14:10:56.443Z,10.15
2023-02-15T14:13:57.091Z,11.75
2023-02-15T14:16:39.553Z,11.98
2023-02-15T14:19:24.313Z,12.32
2023-02-15T14:22:06.359Z,12.38
2023-02-15T14:25:01.137Z,13.20
2023-02-15T14:27:44.156Z,12.88
2023-02-15T14:30:20.089Z,11.65
2023-02-15T14:32:50.602Z,12.65
2023-02-15T14:35:19.871Z,11.48
2023-02-15T14:38:13.256Z,14.05
2023-02-15T14:41:02.292Z,13.13
2023-02-15T14:43:59.654Z,13.25
2023-02-15T14:46:56.100Z,12.23
2023-02-15T14:49:28.745Z,13.32
2023-02-15T14:51:57.899Z,12.50
2023-02-15T14:54:24.653Z,12.35
2023-02-15T14:57:07.461Z,12.15
2023-02-15T14:59:39.873Z,13.10
2023-02-15T15:02:09.751Z,13.32
2023-02-15T15:04:44.610Z,11.80
2023-02-15T15:07:23.572Z,12.52
2023-02-15T15:10:02.037Z,13.25
2023-02-15T15:12:35.226Z,12.35
2023-02-15T15:15:02.854Z,14.95
2023-02-15T15:17:32.634Z,13.60
2023-02-15T15:20:14.730Z,13.25
2023-02-15T15:22:43.229Z,14.32
2023-02-15T15:25:32.881Z,15.18
2023-02-15T15:27:59.710Z,12.60
2023-02-15T15:30:26.499Z,13.57
2023-02-15T15:32:56.617Z,14.27
2023-02-15T15:35:36.046Z,14.40
2023-02-15T15:38:21.096Z,15.48
2023-02-15T15:41:25.947Z,15.32
2023-02-15T15:44:20.581Z,12.65
2023-02-15T15:49:33.965Z,12.82
2023-02-15T15:52:02.564Z,15.68
2023-02-15T15:54:29.702Z,14.10
2023-02-15T15:56:59.390Z,14.35
2023-02-15T15:59:28.058Z,13.93
2023-02-15T16:01:55.219Z,13.77
2023-02-15T16:04:25.708Z,14.05
2023-02-15T16:06:52.984Z,14.93
2023-02-15T16:09:20.029Z,16.92
2023-02-15T16:11:49.225Z,17.08
2023-02-15T16:14:42.471Z,15.95
2023-02-15T16:17:16.707Z,15.80
2023-02-15T16:19:44.344Z,14.73
2023-02-15T16:22:14.920Z,13.55
2023-02-15T16:25:15.719Z,13.70
2023-02-15T16:27:43.919Z,14.65
2023-02-15T16:30:19.519Z,14.48
2023-02-15T16:32:46.311Z,14.30
2023-02-15T16:35:18.680Z,14.00
2023-02-15T16:37:46.520Z,13.90
2023-02-15T16:40:27.419Z,14.35
2023-02-15T16:43:01.179Z,13.25
2023-02-15T16:45:29.087Z,15.07
2023-02-15T16:47:58.684Z,13.05
2023-02-15T16:50:30.078Z,12.93
2023-02-15T16:52:57.496Z,15.00
2023-02-15T16:55:27.389Z,12.25
2023-02-15T16:58:00.140Z,11.80
2023-02-15T17:00:29.875Z,12.27
2023-02-15T17:03:01.853Z,11.63
2023-02-15T17:05:45.371Z,11.07
2023-02-15T17:08:27.492Z,13.65
2023-02-15T17:11:00.819Z,13.07
2023-02-15T17:13:28.782Z,14.20
2023-02-15T17:16:02.122Z,14.27
2023-02-15T17:18:31.743Z,13.15
2023-02-15T17:21:10.789Z,11.98
2023-02-15T17:23:45.982Z,11.73
2023-02-15T17:26:24.797Z,11.48
2023-02-15T17:28:54.466Z,12.73
2023-02-15T17:31:22.399Z,11.57
2023-02-15T17:33:50.020Z,12.18
2023-02-15T17:36:23.452Z,11.18
2023-02-15T17:38:59.761Z,11.45
2023-02-15T17:41:45.210Z,12.18
2023-02-15T17:44:15.002Z,9.40
2023-02-15T17:46:42.312Z,11.52
2023-02-15T17:49:19.472Z,13.10
2023-02-15T17:51:46.288Z,10.65
2023-02-15T17:54:31.615Z,11.70
2023-02-15T17:57:05.522Z,11.63
2023-02-15T17:59:32.343Z,11.02
2023-02-15T18:02:17.772Z,12.60
2023-02-15T18:05:03.176Z,14.63
2023-02-15T18:07:48.590Z,16.80
2023-02-15T18:10:36.957Z,16.48
2023-02-15T18:13:04.441Z,14.98
2023-02-15T18:15:31.559Z,15.68
2023-02-15T18:17:58.429Z,15.55
2023-02-15T18:20:28.802Z,15.68
2023-02-15T18:22:55.576Z,18.92
2023-02-15T18:25:25.540Z,18.17
2023-02-15T18:27:54.896Z,19.08
2023-02-15T18:30:23.796Z,17.42
2023-02-15T18:32:52.691Z,17.35
2023-02-15T18:35:21.574Z,17.30
2023-02-15T18:37:49.096Z,17.00
2023-02-15T18:40:17.492Z,14.18
2023-02-15T18:42:47.930Z,14.32
2023-02-15T18:45:21.205Z,16.90
2023-02-15T18:47:48.865Z,17.38
2023-02-15T18:50:20.373Z,16.70
2023-02-15T18:52:50.634Z,18.85
2023-02-15T18:55:25.185Z,16.08
2023-02-15T18:57:53.570Z,16.92
2023-02-15T19:00:28.633Z,16.98
2023-02-15T19:02:59.572Z,12.65
2023-02-15T19:05:28.318Z,16.63
2023-02-15T19:07:56.236Z,15.68
2023-02-15T19:10:27.761Z,14.15
2023-02-15T19:12:55.996Z,12.70
2023-02-15T19:15:24.087Z,12.52
2023-02-15T19:17:52.043Z,12.68
2023-02-15T19:20:18.834Z,12.18
2023-02-15T19:22:47.108Z,12.75
2023-02-15T19:25:22.834Z,19.75
2023-02-15T19:30:30.905Z,14.15
2023-02-15T19:32:58.932Z,17.92
2023-02-15T19:35:29.749Z,18.05
2023-02-15T19:38:01.862Z,18.77
2023-02-15T19:40:33.409Z,21.92
2023-02-15T19:43:00.473Z,19.90
2023-02-15T19:45:29.578Z,22.02
2023-02-15T19:47:56.640Z,20.60
2023-02-15T19:50:26.713Z,16.58
2023-02-15T19:52:53.642Z,15.32
2023-02-15T19:55:31.917Z,15.10
2023-02-15T19:58:00.386Z,12.35
2023-02-15T20:00:36.600Z,15.10
2023-02-15T20:03:03.691Z,14.25
2023-02-15T20:05:34.081Z,13.27
2023-02-15T20:08:01.821Z,13.15
2023-02-15T20:10:30.917Z,11.98
2023-02-15T20:12:58.340Z,11.10
2023-02-15T20:15:33.476Z,12.52
2023-02-15T20:18:03.691Z,11.43
2023-02-15T20:20:43.222Z,11.07
2023-02-15T20:23:22.142Z,12.98
2023-02-15T20:25:49.794Z,13.10
2023-02-15T20:28:21.686Z,11.38
2023-02-15T20:30:49.721Z,11.48
2023-02-15T20:33:17.194Z,9.20
2023-02-15T20:35:44.903Z,11.30
2023-02-15T20:38:18.509Z,8.02
2023-02-15T20:41:05.813Z,8.63
2023-02-15T20:43:33.668Z,11.27
2023-02-15T20:46:01.114Z,10.85
2023-02-15T20:48:28.356Z,9.35
2023-02-15T20:50:55.939Z,9.93
2023-02-15T20:53:22.849Z,9.82
2023-02-15T20:55:49.673Z,9.15
2023-02-15T20:58:27.024Z,8.40
2023-02-15T21:00:55.182Z,10.35
2023-02-15T21:03:24.641Z,10.10
2023-02-15T21:05:51.456Z,8.88
2023-02-15T21:08:23.735Z,10.77
2023-02-15T21:10:52.251Z,11.70
2023-02-15T21:13:26.199Z,11.50
2023-02-15T21:15:54.746Z,10.73
2023-02-15T21:18:26.129Z,11.15
2023-02-15T21:20:55.640Z,9.07
2023-02-15T21:23:38.266Z,9.43
2023-02-15T21:26:05.972Z,8.40
2023-02-15T21:28:32.795Z,6.70
2023-02-15T21:30:59.904Z,8.25
2023-02-15T21:33:27.267Z,8.90
2023-02-15T21:35:58.038Z,7.70
2023-02-15T21:38:27.377Z,9.27
2023-02-15T21:43:42.079Z,7.53
2023-02-15T21:46:34.823Z,10.23
2023-02-15T21:49:02.267Z,6.78
2023-02-15T21:51:48.702Z,8.50
2023-02-15T21:54:17.010Z,7.10
2023-02-15T21:56:43.984Z,8.35
2023-02-15T21:59:12.195Z,8.73
2023-02-15T22:01:41.890Z,8.82
2023-02-15T22:04:29.592Z,6.72
2023-02-15T22:06:56.788Z,8.48
2023-02-15T22:09:26.814Z,8.30
2023-02-15T22:11:54.568Z,10.00
2023-02-15T22:14:27.134Z,6.97
2023-02-15T22:16:53.867Z,8.90
2023-02-15T22:19:20.583Z,9.73
2023-02-15T22:21:47.601Z,8.80
2023-02-15T22:24:14.289Z,9.13
2023-02-15T22:26:41.105Z,10.15
2023-02-15T22:29:13.980Z,10.95
2023-02-15T22:31:40.841Z,10.93
2023-02-15T22:34:16.837Z,8.82
2023-02-15T22:36:43.593Z,8.15
2023-02-15T22:39:10.357Z,11.52
2023-02-15T22:41:37.343Z,11.18
2023-02-15T22:44:04.144Z,11.77
2023-02-15T22:46:31.077Z,11.43
2023-02-15T22:48:57.902Z,9.90
2023-02-15T22:51:25.438Z,10.63
2023-02-15T22:53:53.378Z,11.48
2023-02-15T22:56:28.180Z,12.65
2023-02-15T22:59:06.182Z,8.98
2023-02-15T23:01:35.475Z,10.30
2023-02-15T23:06:31.712Z,10.80
2023-02-15T23:09:00.845Z,9.82
2023-02-15T23:11:28.143Z,11.45
2023-02-15T23:13:55.172Z,8.38
2023-02-15T23:16:21.960Z,8.02
2023-02-15T23:18:49.431Z,7.10
2023-02-15T23:21:26.195Z,8.23
2023-02-15T23:24:12.596Z,8.50
2023-02-15T23:26:39.379Z,10.15
2023-02-15T23:29:06.501Z,13.88
2023-02-15T23:31:34.785Z,9.45
2023-02-15T23:34:03.151Z,7.65
2023-02-15T23:36:32.853Z,9.98
2023-02-15T23:39:24.825Z,12.80
2023-02-15T23:41:51.849Z,11.63
2023-02-15T23:44:19.071Z,12.63
2023-02-15T23:46:46.830Z,7.07
2023-02-15T23:49:15.632Z,8.05
2023-02-15T23:51:46.155Z,9.02
2023-02-15T23:54:14.385Z,9.20
2023-02-15T23:56:42.384Z,8.02
2023-02-15T23:59:13.988Z,9.63
